Time;durP1;ratioP1;P1;durP2;ratioP2;P2;SDS_P1;SDS_P2;PMS_P1;PMS_P2;Temp;Humidity;BMP_temperature;BMP_pressure;BME280_temperature;BME280_humidity;BME280_pressure;Samples;Min_cycle;Max_cycle;Signal;HPM_P1;HPM_P2
2023/04/02 00:02:30;;;;;;;4.73;3.50;;;;;;;;;;5043634;28;20191;-70
2023/04/02 00:05:15;;;;;;;4.97;3.37;;;;;;;;;;5052183;28;20191;-70
2023/04/02 00:07:43;;;;;;;4.47;3.37;;;;;;;;;;5051282;28;20207;-70
2023/04/02 00:10:25;;;;;;;5.97;4.00;;;;;;;;;;5044860;28;20272;-70
2023/04/02 00:12:59;;;;;;;5.83;4.27;;;;;;;;;;5045489;28;20278;-70
2023/04/02 00:15:27;;;;;;;5.47;3.87;;;;;;;;;;5044896;28;20599;-69
2023/04/02 00:17:53;;;;;;;3.87;3.17;;;;;;;;;;5048346;28;20717;-71
2023/04/02 00:20:20;;;;;;;5.50;3.50;;;;;;;;;;5043680;28;20225;-69
2023/04/02 00:22:48;;;;;;;4.23;3.43;;;;;;;;;;5047015;28;20645;-68
2023/04/02 00:25:15;;;;;;;3.97;3.40;;;;;;;;;;5030200;28;20697;-68
2023/04/02 00:27:42;;;;;;;5.30;3.77;;;;;;;;;;5047368;28;20203;-68
2023/04/02 00:30:11;;;;;;;9.00;4.37;;;;;;;;;;5030317;28;20563;-68
2023/04/02 00:32:39;;;;;;;4.73;3.23;;;;;;;;;;5048802;28;20200;-69
2023/04/02 00:35:10;;;;;;;5.13;4.23;;;;;;;;;;5043327;28;20813;-68
2023/04/02 00:37:41;;;;;;;6.63;4.47;;;;;;;;;;5045773;28;20666;-71
2023/04/02 00:40:09;;;;;;;5.87;3.83;;;;;;;;;;5045172;28;20215;-69
2023/04/02 00:42:38;;;;;;;6.40;4.20;;;;;;;;;;5030417;28;20204;-69
2023/04/02 00:45:08;;;;;;;5.97;4.07;;;;;;;;;;5044158;28;20230;-68
2023/04/02 00:47:36;;;;;;;7.10;4.90;;;;;;;;;;5035727;28;20199;-70
2023/04/02 00:50:06;;;;;;;5.80;4.30;;;;;;;;;;5037583;28;20252;-71
2023/04/02 00:52:33;;;;;;;8.00;5.00;;;;;;;;;;5059396;28;20190;-71
2023/04/02 00:55:02;;;;;;;8.80;5.30;;;;;;;;;;5040956;28;20211;-70
2023/04/02 00:57:29;;;;;;;7.17;5.17;;;;;;;;;;5068932;28;20735;-70
2023/04/02 00:59:57;;;;;;;8.50;5.23;;;;;;;;;;5058224;28;20229;-70
2023/04/02 01:02:28;;;;;;;7.40;4.83;;;;;;;;;;5050474;28;20209;-69
2023/04/02 01:04:55;;;;;;;12.90;5.53;;;;;;;;;;5036492;28;20764;-70
2023/04/02 01:07:29;;;;;;;9.90;5.17;;;;;;;;;;5033138;28;20191;-69
2023/04/02 01:10:05;;;;;;;8.23;5.20;;;;;;;;;;5051884;28;20285;-69
2023/04/02 01:12:36;;;;;;;8.20;4.83;;;;;;;;;;5047919;28;20214;-69
2023/04/02 01:15:06;;;;;;;9.77;4.30;;;;;;;;;;5034309;28;20206;-69
2023/04/02 01:17:47;;;;;;;6.47;4.87;;;;;;;;;;5036279;28;20673;-69
2023/04/02 01:20:40;;;;;;;10.50;5.20;;;;;;;;;;5039344;28;20210;-70
2023/04/02 01:23:35;;;;;;;13.33;5.43;;;;;;;;;;5021245;28;20284;-70
2023/04/02 01:26:08;;;;;;;9.67;5.20;;;;;;;;;;5059209;28;20675;-70
2023/04/02 01:28:44;;;;;;;8.30;5.23;;;;;;;;;;5035832;28;20200;-70
2023/04/02 01:31:10;;;;;;;9.93;5.43;;;;;;;;;;5031944;28;20277;-71
2023/04/02 01:33:37;;;;;;;11.17;5.47;;;;;;;;;;5044791;28;20603;-71
2023/04/02 01:36:06;;;;;;;8.33;4.93;;;;;;;;;;5051824;28;20242;-71
2023/04/02 01:38:35;;;;;;;7.80;5.10;;;;;;;;;;5035639;28;20195;-71
2023/04/02 01:41:05;;;;;;;9.30;5.10;;;;;;;;;;5043511;28;20223;-70
2023/04/02 01:43:35;;;;;;;12.87;5.90;;;;;;;;;;5042649;28;20199;-71
2023/04/02 01:46:06;;;;;;;14.10;6.03;;;;;;;;;;5055054;28;20223;-71
2023/04/02 01:48:32;;;;;;;10.10;5.23;;;;;;;;;;5034363;28;20625;-70
2023/04/02 01:51:02;;;;;;;5.60;4.27;;;;;;;;;;5031044;28;20187;-69
2023/04/02 01:53:30;;;;;;;8.17;4.87;;;;;;;;;;5038238;28;20245;-69
2023/04/02 01:55:58;;;;;;;7.13;5.33;;;;;;;;;;5035990;28;20264;-71
2023/04/02 01:58:25;;;;;;;11.50;5.00;;;;;;;;;;5036779;28;20212;-74
2023/04/02 02:00:56;;;;;;;6.63;4.87;;;;;;;;;;5039015;28;20743;-70
2023/04/02 02:03:25;;;;;;;8.00;4.70;;;;;;;;;;5031239;28;20220;-70
2023/04/02 02:05:51;;;;;;;8.33;5.43;;;;;;;;;;5040072;28;20226;-70
2023/04/02 02:08:30;;;;;;;7.97;4.63;;;;;;;;;;5054147;28;20223;-70
2023/04/02 02:10:57;;;;;;;6.97;4.57;;;;;;;;;;5057224;28;20202;-70
2023/04/02 02:13:24;;;;;;;9.23;5.60;;;;;;;;;;5042839;28;20579;-70
2023/04/02 02:15:51;;;;;;;7.50;5.00;;;;;;;;;;5040609;28;20235;-70
2023/04/02 02:18:20;;;;;;;5.93;4.50;;;;;;;;;;5035282;28;20207;-70
2023/04/02 02:20:47;;;;;;;7.77;4.60;;;;;;;;;;5040699;28;20255;-70
2023/04/02 02:23:14;;;;;;;8.63;4.97;;;;;;;;;;5035300;28;20198;-70
2023/04/02 02:25:42;;;;;;;9.53;5.00;;;;;;;;;;5041884;28;20207;-70
2023/04/02 02:28:10;;;;;;;9.60;5.07;;;;;;;;;;5053995;28;20199;-70
2023/04/02 02:30:38;;;;;;;10.80;4.30;;;;;;;;;;5032400;28;20200;-70
2023/04/02 02:33:13;;;;;;;6.70;4.47;;;;;;;;;;5038313;28;20200;-70
2023/04/02 02:35:42;;;;;;;9.00;4.40;;;;;;;;;;5056872;28;20223;-70
2023/04/02 02:38:28;;;;;;;8.57;5.10;;;;;;;;;;5038777;28;20204;-70
2023/04/02 02:41:02;;;;;;;7.80;4.23;;;;;;;;;;5031445;28;20782;-70
2023/04/02 02:43:29;;;;;;;9.50;4.33;;;;;;;;;;5034510;28;20203;-70
2023/04/02 02:45:56;;;;;;;6.40;3.97;;;;;;;;;;5055305;28;20249;-70
2023/04/02 02:48:23;;;;;;;5.90;3.70;;;;;;;;;;5048856;28;20187;-70
2023/04/02 02:50:50;;;;;;;6.23;3.50;;;;;;;;;;5057213;28;20568;-70
2023/04/02 02:53:19;;;;;;;5.10;3.57;;;;;;;;;;5034720;28;20564;-70
2023/04/02 02:55:46;;;;;;;7.13;3.00;;;;;;;;;;5033257;28;20215;-70
2023/04/02 02:58:22;;;;;;;6.97;3.70;;;;;;;;;;5054030;28;20245;-70
2023/04/02 03:01:09;;;;;;;5.73;3.50;;;;;;;;;;5058008;28;20215;-70
2023/04/02 03:03:38;;;;;;;5.33;3.30;;;;;;;;;;5042293;28;20206;-70
2023/04/02 03:06:07;;;;;;;12.87;4.03;;;;;;;;;;5036056;28;20219;-72
2023/04/02 03:08:39;;;;;;;6.33;3.53;;;;;;;;;;5039166;28;20199;-71
2023/04/02 03:11:10;;;;;;;6.20;3.20;;;;;;;;;;5059830;28;20701;-72
2023/04/02 03:13:40;;;;;;;6.27;3.10;;;;;;;;;;5039320;28;20235;-72
2023/04/02 03:16:10;;;;;;;6.00;3.23;;;;;;;;;;5037729;28;20759;-72
2023/04/02 03:18:41;;;;;;;4.53;2.90;;;;;;;;;;5034355;28;20672;-71
2023/04/02 03:21:14;;;;;;;4.57;3.23;;;;;;;;;;5040110;28;20211;-71
2023/04/02 03:23:42;;;;;;;4.90;3.37;;;;;;;;;;5035876;28;20286;-72
2023/04/02 03:26:11;;;;;;;4.87;2.93;;;;;;;;;;5055691;28;20218;-71
2023/04/02 03:28:41;;;;;;;8.00;3.43;;;;;;;;;;5043977;28;20206;-72
2023/04/02 03:31:08;;;;;;;7.80;3.33;;;;;;;;;;5048655;28;20195;-71
2023/04/02 03:33:37;;;;;;;5.50;3.30;;;;;;;;;;5033055;28;20196;-72
2023/04/02 03:36:12;;;;;;;7.23;3.43;;;;;;;;;;5032055;28;20278;-69
2023/04/02 03:38:42;;;;;;;7.47;3.00;;;;;;;;;;5032552;28;20260;-69
2023/04/02 03:41:15;;;;;;;9.87;3.80;;;;;;;;;;5044369;28;20262;-71
2023/04/02 03:43:45;;;;;;;7.70;3.53;;;;;;;;;;5045426;28;20665;-68
2023/04/02 03:46:17;;;;;;;7.70;3.73;;;;;;;;;;5030127;28;20310;-69
2023/04/02 03:48:45;;;;;;;5.53;3.53;;;;;;;;;;5045624;28;20210;-70
2023/04/02 03:51:14;;;;;;;7.43;3.80;;;;;;;;;;5033756;28;20198;-71
2023/04/02 03:53:45;;;;;;;5.17;3.33;;;;;;;;;;5028080;28;20200;-72
2023/04/02 03:56:18;;;;;;;5.83;3.17;;;;;;;;;;5032865;28;20214;-70
2023/04/02 03:58:47;;;;;;;3.83;3.03;;;;;;;;;;5055104;28;20293;-74
2023/04/02 04:01:18;;;;;;;4.57;2.70;;;;;;;;;;5031126;28;20692;-69
2023/04/02 04:03:46;;;;;;;8.50;3.27;;;;;;;;;;5030746;28;20258;-70
2023/04/02 04:06:16;;;;;;;8.80;2.93;;;;;;;;;;5028869;28;20250;-71
2023/04/02 04:08:44;;;;;;;6.57;2.80;;;;;;;;;;5043596;28;20254;-72
2023/04/02 04:11:13;;;;;;;4.23;3.00;;;;;;;;;;5050516;28;20332;-69
2023/04/02 04:13:43;;;;;;;4.97;3.23;;;;;;;;;;5048095;28;20203;-72
2023/04/02 04:16:12;;;;;;;7.13;3.50;;;;;;;;;;5044633;28;20219;-72
2023/04/02 04:18:43;;;;;;;3.37;2.67;;;;;;;;;;5034782;28;20199;-72
2023/04/02 04:21:15;;;;;;;7.90;3.00;;;;;;;;;;5035608;28;20294;-71
2023/04/02 04:23:49;;;;;;;3.47;2.70;;;;;;;;;;5058504;28;20209;-72
2023/04/02 04:26:19;;;;;;;4.10;2.53;;;;;;;;;;5043066;28;20223;-72
2023/04/02 04:28:58;;;;;;;8.00;2.77;;;;;;;;;;5033172;28;20638;-72
2023/04/02 04:31:33;;;;;;;6.23;2.70;;;;;;;;;;5037943;28;20222;-72
2023/04/02 04:34:05;;;;;;;4.10;2.80;;;;;;;;;;5043863;28;20190;-72
2023/04/02 04:36:40;;;;;;;4.43;2.63;;;;;;;;;;5059184;28;20775;-70
2023/04/02 04:39:14;;;;;;;3.70;3.00;;;;;;;;;;5038414;28;20328;-72
2023/04/02 04:41:45;;;;;;;8.40;3.43;;;;;;;;;;5039746;28;20650;-72
2023/04/02 04:44:14;;;;;;;5.47;2.83;;;;;;;;;;5027090;28;20203;-72
2023/04/02 04:46:47;;;;;;;6.47;3.00;;;;;;;;;;5026969;28;20235;-70
2023/04/02 04:49:41;;;;;;;3.97;2.73;;;;;;;;;;5043907;28;20209;-70
2023/04/02 04:52:09;;;;;;;4.10;2.30;;;;;;;;;;5037812;28;20286;-69
2023/04/02 04:54:37;;;;;;;6.03;3.00;;;;;;;;;;5034956;28;20204;-73
2023/04/02 04:57:06;;;;;;;3.43;2.67;;;;;;;;;;5045318;28;20279;-72
2023/04/02 04:59:35;;;;;;;6.50;3.13;;;;;;;;;;5042124;28;20474;-71
2023/04/02 05:02:06;;;;;;;4.93;3.10;;;;;;;;;;5035763;28;20211;-72
2023/04/02 05:04:35;;;;;;;6.47;2.70;;;;;;;;;;5044729;28;20248;-72
2023/04/02 05:07:04;;;;;;;5.30;2.57;;;;;;;;;;5039109;28;20223;-72
2023/04/02 05:09:36;;;;;;;3.53;2.60;;;;;;;;;;5040912;28;20214;-72
2023/04/02 05:12:07;;;;;;;7.63;3.17;;;;;;;;;;5041654;28;20195;-72
2023/04/02 05:14:37;;;;;;;8.63;3.00;;;;;;;;;;5038854;28;20210;-72
2023/04/02 05:17:06;;;;;;;3.50;2.33;;;;;;;;;;5039811;28;20302;-72
2023/04/02 05:19:36;;;;;;;7.20;2.47;;;;;;;;;;5037711;28;20195;-72
2023/04/02 05:22:06;;;;;;;4.00;2.47;;;;;;;;;;5038118;28;20241;-72
2023/04/02 05:24:38;;;;;;;6.80;2.27;;;;;;;;;;5046190;28;20571;-71
2023/04/02 05:27:13;;;;;;;2.13;1.90;;;;;;;;;;5050943;28;20320;-72
2023/04/02 05:29:42;;;;;;;3.70;2.00;;;;;;;;;;5056377;28;20269;-72
2023/04/02 05:32:13;;;;;;;3.00;1.83;;;;;;;;;;5050777;28;20540;-72
2023/04/02 05:34:41;;;;;;;3.10;1.70;;;;;;;;;;5035309;28;20204;-71
2023/04/02 05:37:13;;;;;;;2.33;1.60;;;;;;;;;;5065135;28;20242;-71
2023/04/02 05:39:44;;;;;;;2.20;1.60;;;;;;;;;;5062465;28;20194;-72
2023/04/02 05:42:15;;;;;;;3.10;1.87;;;;;;;;;;5039282;28;20203;-69
2023/04/02 05:44:55;;;;;;;3.10;1.53;;;;;;;;;;5038828;28;20200;-67
2023/04/02 05:47:25;;;;;;;2.83;1.63;;;;;;;;;;5023334;28;20676;-67
2023/04/02 05:49:55;;;;;;;2.30;1.80;;;;;;;;;;5033239;28;20210;-67
2023/04/02 05:52:23;;;;;;;1.87;1.53;;;;;;;;;;5033341;28;20656;-68
2023/04/02 05:54:55;;;;;;;2.00;1.73;;;;;;;;;;5016292;28;20200;-68
2023/04/02 05:57:24;;;;;;;2.53;1.53;;;;;;;;;;5021878;28;20290;-69
2023/04/02 05:59:54;;;;;;;2.77;1.60;;;;;;;;;;5015266;28;20541;-69
2023/04/02 06:02:22;;;;;;;2.10;1.80;;;;;;;;;;5036350;28;20546;-68
2023/04/02 06:04:52;;;;;;;2.23;1.57;;;;;;;;;;5017092;28;20196;-68
2023/04/02 06:07:21;;;;;;;3.60;2.07;;;;;;;;;;5016005;28;20205;-69
2023/04/02 06:09:54;;;;;;;2.13;1.57;;;;;;;;;;5015903;28;20291;-68
2023/04/02 06:12:24;;;;;;;1.53;1.30;;;;;;;;;;5015413;28;20584;-68
2023/04/02 06:14:51;;;;;;;1.83;1.40;;;;;;;;;;5032908;28;20251;-68
2023/04/02 06:17:18;;;;;;;3.83;1.77;;;;;;;;;;5022973;28;20259;-68
2023/04/02 06:19:46;;;;;;;1.43;1.33;;;;;;;;;;5027061;28;20274;-68
2023/04/02 06:22:22;;;;;;;3.47;1.60;;;;;;;;;;5018553;28;20212;-68
2023/04/02 06:24:53;;;;;;;3.37;1.67;;;;;;;;;;5020637;28;20214;-68
2023/04/02 06:27:21;;;;;;;2.63;1.57;;;;;;;;;;5016830;28;20211;-69
2023/04/02 06:29:51;;;;;;;2.53;1.60;;;;;;;;;;5034072;28;20609;-69
2023/04/02 06:32:20;;;;;;;2.47;1.53;;;;;;;;;;5023985;28;20696;-69
2023/04/02 06:34:49;;;;;;;1.40;1.30;;;;;;;;;;5021076;28;20208;-69
2023/04/02 06:37:20;;;;;;;1.33;1.23;;;;;;;;;;5036167;28;20227;-69
2023/04/02 06:39:49;;;;;;;2.67;1.70;;;;;;;;;;5015231;28;20273;-69
2023/04/02 06:42:21;;;;;;;2.07;1.53;;;;;;;;;;5013447;28;20212;-69
2023/04/02 06:45:14;;;;;;;1.67;1.30;;;;;;;;;;5040607;28;20202;-69
2023/04/02 06:47:46;;;;;;;2.97;1.60;;;;;;;;;;5012212;28;20291;-69
2023/04/02 06:50:22;;;;;;;1.33;1.10;;;;;;;;;;5012694;28;20734;-69
2023/04/02 06:52:50;;;;;;;1.37;1.07;;;;;;;;;;5015644;28;20193;-69
2023/04/02 06:55:26;;;;;;;1.77;1.20;;;;;;;;;;5007644;28;20219;-69
2023/04/02 06:57:53;;;;;;;2.37;1.10;;;;;;;;;;5022276;28;20187;-69
2023/04/02 07:00:23;;;;;;;1.87;1.30;;;;;;;;;;5029527;28;20204;-69
2023/04/02 07:02:51;;;;;;;4.20;1.30;;;;;;;;;;5025580;28;20230;-69
2023/04/02 07:05:17;;;;;;;1.23;1.00;;;;;;;;;;5027831;28;20228;-69
2023/04/02 07:07:46;;;;;;;1.80;1.27;;;;;;;;;;5010797;28;20201;-69
2023/04/02 07:10:14;;;;;;;3.07;1.23;;;;;;;;;;5011589;28;20676;-69
2023/04/02 07:12:41;;;;;;;1.90;1.10;;;;;;;;;;5033645;28;20668;-69
2023/04/02 07:15:10;;;;;;;2.13;1.10;;;;;;;;;;5009815;28;20283;-69
2023/04/02 07:17:37;;;;;;;2.33;1.10;;;;;;;;;;5028981;28;20204;-69
2023/04/02 07:20:04;;;;;;;2.30;1.30;;;;;;;;;;5031353;28;20200;-70
2023/04/02 07:22:32;;;;;;;2.57;1.03;;;;;;;;;;5028179;28;20243;-69
2023/04/02 07:25:01;;;;;;;3.27;1.30;;;;;;;;;;5013703;28;20199;-72
2023/04/02 07:27:27;;;;;;;2.20;1.23;;;;;;;;;;5020417;28;20212;-69
2023/04/02 07:29:54;;;;;;;5.67;1.40;;;;;;;;;;5022953;28;20274;-69
2023/04/02 07:32:21;;;;;;;1.20;1.10;;;;;;;;;;5024141;28;20212;-68
2023/04/02 07:34:47;;;;;;;1.10;1.00;;;;;;;;;;5019902;28;20432;-69
2023/04/02 07:37:14;;;;;;;2.40;1.30;;;;;;;;;;5025287;28;20219;-68
2023/04/02 07:39:41;;;;;;;2.00;1.50;;;;;;;;;;5008383;28;20212;-68
2023/04/02 07:42:10;;;;;;;1.43;1.10;;;;;;;;;;5008606;28;20299;-68
2023/04/02 07:44:36;;;;;;;2.03;1.20;;;;;;;;;;5028447;28;20215;-68
2023/04/02 07:47:04;;;;;;;1.20;1.10;;;;;;;;;;5038717;28;20492;-69
2023/04/02 07:49:30;;;;;;;1.87;1.13;;;;;;;;;;5039996;28;20225;-70
2023/04/02 07:51:56;;;;;;;1.50;1.10;;;;;;;;;;5045095;28;20204;-71
2023/04/02 07:54:22;;;;;;;3.60;1.30;;;;;;;;;;5049948;28;20199;-70
2023/04/02 07:56:49;;;;;;;1.30;1.10;;;;;;;;;;5027668;28;20219;-72
2023/04/02 07:59:15;;;;;;;2.20;1.40;;;;;;;;;;5049460;28;20290;-71
2023/04/02 08:01:41;;;;;;;1.57;1.10;;;;;;;;;;5045100;28;20231;-68
2023/04/02 08:04:15;;;;;;;1.60;1.10;;;;;;;;;;5044477;28;20297;-69
2023/04/02 08:06:41;;;;;;;2.47;1.13;;;;;;;;;;5045173;28;20772;-68
2023/04/02 08:09:08;;;;;;;2.20;1.20;;;;;;;;;;5051392;28;20195;-69
2023/04/02 08:11:37;;;;;;;1.40;1.00;;;;;;;;;;5040315;28;20207;-69
2023/04/02 08:14:03;;;;;;;2.43;1.10;;;;;;;;;;5037882;28;20680;-68
2023/04/02 08:16:42;;;;;;;5.03;1.63;;;;;;;;;;5047514;28;20575;-69
2023/04/02 08:19:10;;;;;;;3.97;1.20;;;;;;;;;;5043584;28;20205;-69
2023/04/02 08:21:36;;;;;;;2.67;1.47;;;;;;;;;;5048226;28;20214;-71
2023/04/02 08:24:03;;;;;;;1.20;1.10;;;;;;;;;;5052667;28;20202;-69
2023/04/02 08:26:29;;;;;;;1.77;1.27;;;;;;;;;;5046959;28;20223;-70
2023/04/02 08:28:56;;;;;;;1.50;1.27;;;;;;;;;;5040248;28;20327;-69
2023/04/02 08:31:23;;;;;;;1.57;1.10;;;;;;;;;;5048634;28;20210;-70
2023/04/02 08:33:49;;;;;;;3.60;1.20;;;;;;;;;;5043973;28;20203;-70
2023/04/02 08:36:17;;;;;;;3.10;1.10;;;;;;;;;;5043637;28;20218;-69
2023/04/02 08:38:43;;;;;;;1.67;1.23;;;;;;;;;;5039461;28;20202;-69
2023/04/02 08:41:15;;;;;;;2.13;1.53;;;;;;;;;;5041919;28;20207;-69
2023/04/02 08:43:53;;;;;;;4.03;1.60;;;;;;;;;;5047173;28;20219;-70
2023/04/02 08:46:23;;;;;;;3.43;1.50;;;;;;;;;;5046850;28;20234;-69
2023/04/02 08:48:55;;;;;;;2.97;1.40;;;;;;;;;;5036221;28;20219;-71
2023/04/02 08:51:25;;;;;;;2.97;1.40;;;;;;;;;;5042202;28;20622;-69
2023/04/02 08:53:52;;;;;;;1.63;1.20;;;;;;;;;;5048461;28;20188;-70
2023/04/02 08:56:19;;;;;;;1.60;1.10;;;;;;;;;;5044711;28;20218;-70
2023/04/02 08:58:48;;;;;;;1.87;1.20;;;;;;;;;;5037864;28;20191;-69
2023/04/02 09:01:19;;;;;;;2.37;1.50;;;;;;;;;;5042626;28;20207;-69
2023/04/02 09:03:49;;;;;;;1.30;1.13;;;;;;;;;;5040364;28;20211;-70
2023/04/02 09:06:18;;;;;;;1.63;1.20;;;;;;;;;;5046590;28;20301;-69
2023/04/02 09:08:47;;;;;;;2.60;1.00;;;;;;;;;;5045062;28;20205;-72
2023/04/02 09:11:20;;;;;;;4.13;1.60;;;;;;;;;;5041686;28;20203;-70
2023/04/02 09:13:48;;;;;;;1.53;1.10;;;;;;;;;;5048537;28;20580;-70
2023/04/02 09:16:15;;;;;;;1.20;1.00;;;;;;;;;;5039657;28;20227;-70
2023/04/02 09:18:43;;;;;;;0.97;0.90;;;;;;;;;;5038034;28;20252;-69
2023/04/02 09:21:27;;;;;;;1.30;1.20;;;;;;;;;;5039308;28;20291;-69
2023/04/02 09:23:54;;;;;;;3.90;1.30;;;;;;;;;;5039585;28;20219;-69
2023/04/02 09:26:22;;;;;;;4.50;1.60;;;;;;;;;;5042272;28;20281;-70
2023/04/02 09:28:48;;;;;;;2.53;1.50;;;;;;;;;;5044779;28;20278;-70
2023/04/02 09:31:18;;;;;;;1.93;1.43;;;;;;;;;;5045027;28;20204;-71
2023/04/02 09:33:45;;;;;;;3.70;1.77;;;;;;;;;;5045638;28;20200;-69
2023/04/02 09:36:30;;;;;;;3.30;1.40;;;;;;;;;;5032776;28;20223;-71
2023/04/02 09:39:00;;;;;;;4.17;1.30;;;;;;;;;;5045438;28;20204;-70
2023/04/02 09:41:28;;;;;;;2.97;1.33;;;;;;;;;;5047922;28;20204;-71
2023/04/02 09:44:09;;;;;;;1.93;1.17;;;;;;;;;;5035942;28;21070;-71
2023/04/02 09:46:36;;;;;;;1.80;1.27;;;;;;;;;;5050380;28;20231;-71
2023/04/02 09:49:02;;;;;;;2.63;1.20;;;;;;;;;;5055896;28;20271;-71
2023/04/02 09:51:30;;;;;;;3.57;1.30;;;;;;;;;;5049846;28;20192;-71
2023/04/02 09:54:08;;;;;;;1.50;1.03;;;;;;;;;;5048716;28;20614;-71
2023/04/02 09:56:36;;;;;;;1.93;1.30;;;;;;;;;;5047956;28;20227;-71
2023/04/02 09:59:03;;;;;;;2.60;1.37;;;;;;;;;;5055931;28;20667;-71
2023/04/02 10:01:30;;;;;;;3.63;1.53;;;;;;;;;;5060374;28;20202;-72
2023/04/02 10:03:58;;;;;;;2.07;1.30;;;;;;;;;;5055242;28;20219;-71
2023/04/02 10:06:25;;;;;;;2.13;1.00;;;;;;;;;;5056835;28;20241;-71
2023/04/02 10:08:51;;;;;;;2.37;1.17;;;;;;;;;;5033153;28;20204;-70
2023/04/02 10:11:21;;;;;;;3.37;0.90;;;;;;;;;;5041753;28;20199;-71
2023/04/02 10:13:51;;;;;;;1.03;0.80;;;;;;;;;;5046526;28;20363;-68
2023/04/02 10:16:21;;;;;;;2.10;1.40;;;;;;;;;;5033579;28;20232;-69
2023/04/02 10:18:49;;;;;;;6.20;1.67;;;;;;;;;;5036990;28;20230;-69
2023/04/02 10:21:17;;;;;;;2.03;1.33;;;;;;;;;;5033405;28;20200;-69
2023/04/02 10:23:43;;;;;;;1.60;1.10;;;;;;;;;;5051646;28;20222;-69
2023/04/02 10:26:19;;;;;;;1.00;0.90;;;;;;;;;;5047176;28;20414;-69
2023/04/02 10:28:54;;;;;;;2.70;0.97;;;;;;;;;;5027699;28;20211;-71
2023/04/02 10:31:28;;;;;;;3.53;1.43;;;;;;;;;;5046677;28;20193;-71
2023/04/02 10:33:58;;;;;;;1.23;1.13;;;;;;;;;;5049664;28;20260;-71
2023/04/02 10:36:29;;;;;;;1.93;1.30;;;;;;;;;;5052054;28;20217;-70
2023/04/02 10:38:58;;;;;;;6.40;1.47;;;;;;;;;;5045653;28;20204;-70
2023/04/02 10:41:28;;;;;;;4.70;1.50;;;;;;;;;;5049086;28;20196;-70
2023/04/02 10:44:00;;;;;;;2.13;1.30;;;;;;;;;;5046744;28;20211;-70
2023/04/02 10:46:29;;;;;;;5.80;1.50;;;;;;;;;;5027653;28;20258;-69
2023/04/02 10:49:00;;;;;;;1.93;1.30;;;;;;;;;;5044910;28;20199;-70
2023/04/02 10:51:33;;;;;;;4.73;1.63;;;;;;;;;;5041748;28;20206;-71
2023/04/02 10:54:03;;;;;;;2.80;1.97;;;;;;;;;;5044797;28;20525;-68
2023/04/02 10:56:30;;;;;;;2.63;1.70;;;;;;;;;;5040067;28;20695;-70
2023/04/02 10:58:59;;;;;;;3.80;1.57;;;;;;;;;;5044993;28;20199;-70
2023/04/02 11:01:29;;;;;;;1.33;1.23;;;;;;;;;;5044577;28;20195;-70
2023/04/02 11:03:57;;;;;;;2.17;1.50;;;;;;;;;;5043498;28;20212;-70
2023/04/02 11:06:24;;;;;;;2.43;1.40;;;;;;;;;;5033436;28;20231;-70
2023/04/02 11:08:52;;;;;;;2.60;1.63;;;;;;;;;;5050454;28;20201;-70
2023/04/02 11:11:20;;;;;;;1.93;1.40;;;;;;;;;;5044233;28;20212;-70
2023/04/02 11:13:50;;;;;;;2.60;1.30;;;;;;;;;;5047445;28;20233;-70
2023/04/02 11:16:16;;;;;;;1.97;1.20;;;;;;;;;;5044652;28;20215;-70
2023/04/02 11:19:04;;;;;;;1.40;1.00;;;;;;;;;;5044050;28;20210;-70
2023/04/02 11:21:38;;;;;;;3.03;1.50;;;;;;;;;;5046285;28;20191;-70
2023/04/02 11:24:04;;;;;;;1.57;1.17;;;;;;;;;;5044928;28;20337;-71
2023/04/02 11:26:32;;;;;;;1.37;1.00;;;;;;;;;;5047288;28;20219;-71
2023/04/02 11:29:08;;;;;;;2.23;1.30;;;;;;;;;;5050725;28;20288;-70
2023/04/02 11:31:34;;;;;;;2.70;1.27;;;;;;;;;;5045430;28;20228;-70
2023/04/02 11:34:02;;;;;;;1.03;0.93;;;;;;;;;;5049031;28;20187;-70
2023/04/02 11:36:47;;;;;;;3.13;1.37;;;;;;;;;;5041791;28;20224;-70
2023/04/02 11:39:13;;;;;;;3.43;1.20;;;;;;;;;;5039536;28;20191;-70
2023/04/02 11:41:58;;;;;;;1.20;1.00;;;;;;;;;;5045137;28;20536;-70
2023/04/02 11:44:24;;;;;;;3.43;1.20;;;;;;;;;;5045876;28;20612;-70
2023/04/02 11:46:50;;;;;;;2.90;0.90;;;;;;;;;;5040781;28;20242;-70
2023/04/02 11:49:35;;;;;;;2.30;1.50;;;;;;;;;;5044359;28;20256;-70
2023/04/02 11:52:03;;;;;;;2.70;1.60;;;;;;;;;;5043825;28;20207;-70
2023/04/02 11:54:36;;;;;;;1.17;1.00;;;;;;;;;;5048570;28;20206;-70
2023/04/02 11:57:07;;;;;;;2.17;1.30;;;;;;;;;;5044624;28;20655;-70
2023/04/02 11:59:37;;;;;;;4.10;0.97;;;;;;;;;;5049921;28;20607;-70
2023/04/02 12:02:10;;;;;;;2.23;1.10;;;;;;;;;;5045672;28;20214;-70
2023/04/02 12:05:03;;;;;;;1.43;1.03;;;;;;;;;;5042336;28;20693;-70
2023/04/02 12:07:36;;;;;;;1.10;0.90;;;;;;;;;;5026537;28;20195;-70
2023/04/02 12:10:04;;;;;;;3.47;1.03;;;;;;;;;;5045017;28;20209;-70
2023/04/02 12:12:33;;;;;;;1.70;1.10;;;;;;;;;;5045288;28;20360;-70
2023/04/02 12:14:59;;;;;;;1.47;0.90;;;;;;;;;;5045443;28;20200;-70
2023/04/02 12:17:29;;;;;;;2.63;0.90;;;;;;;;;;5048800;28;20213;-70
2023/04/02 12:19:56;;;;;;;1.70;0.90;;;;;;;;;;5044960;28;20211;-70
2023/04/02 12:22:23;;;;;;;1.10;0.70;;;;;;;;;;5030383;28;20203;-70
2023/04/02 12:24:53;;;;;;;1.73;1.00;;;;;;;;;;5042816;28;20200;-71
2023/04/02 12:27:21;;;;;;;2.00;0.93;;;;;;;;;;5046064;28;20227;-70
2023/04/02 12:29:47;;;;;;;1.43;0.90;;;;;;;;;;5043121;28;20198;-70
2023/04/02 12:32:19;;;;;;;1.77;1.30;;;;;;;;;;5044303;28;20196;-70
2023/04/02 12:34:51;;;;;;;0.80;0.80;;;;;;;;;;5040404;28;20222;-70
2023/04/02 12:37:20;;;;;;;1.50;1.17;;;;;;;;;;5025890;28;20222;-70
2023/04/02 12:39:52;;;;;;;1.70;1.10;;;;;;;;;;5045488;28;20226;-70
2023/04/02 12:42:25;;;;;;;3.23;1.10;;;;;;;;;;5045047;28;20212;-70
2023/04/02 12:44:52;;;;;;;1.30;0.93;;;;;;;;;;5043879;28;20310;-70
2023/04/02 12:47:18;;;;;;;1.23;0.80;;;;;;;;;;5036141;28;20245;-70
2023/04/02 12:49:44;;;;;;;1.27;0.87;;;;;;;;;;5041830;28;20207;-71
2023/04/02 12:52:12;;;;;;;1.13;0.80;;;;;;;;;;5042839;28;20199;-70
2023/04/02 12:54:45;;;;;;;2.10;1.20;;;;;;;;;;5042123;28;20226;-70
2023/04/02 12:57:23;;;;;;;3.70;1.63;;;;;;;;;;5044542;28;20221;-70
2023/04/02 12:59:49;;;;;;;1.40;1.03;;;;;;;;;;5041619;28;20206;-71
2023/04/02 13:02:18;;;;;;;2.67;1.40;;;;;;;;;;5038412;28;20934;-70
2023/04/02 13:04:47;;;;;;;2.27;1.63;;;;;;;;;;5036980;28;20215;-70
2023/04/02 13:07:16;;;;;;;4.10;2.40;;;;;;;;;;5041090;28;20219;-68
2023/04/02 13:09:44;;;;;;;1.83;1.00;;;;;;;;;;5041504;28;20230;-68
2023/04/02 13:12:22;;;;;;;2.97;1.43;;;;;;;;;;5041769;28;20221;-69
2023/04/02 13:14:52;;;;;;;3.00;1.80;;;;;;;;;;5045490;28;20191;-69
2023/04/02 13:17:37;;;;;;;2.50;1.37;;;;;;;;;;5041820;28;20302;-71
2023/04/02 13:20:22;;;;;;;1.70;1.03;;;;;;;;;;5049244;28;20202;-72
2023/04/02 13:22:48;;;;;;;1.70;0.90;;;;;;;;;;5033182;28;20233;-73
2023/04/02 13:25:14;;;;;;;1.60;0.93;;;;;;;;;;5047458;28;20224;-70
2023/04/02 13:27:41;;;;;;;1.67;1.17;;;;;;;;;;5046872;28;20553;-69
2023/04/02 13:30:17;;;;;;;1.23;0.90;;;;;;;;;;5049070;28;20278;-69
2023/04/02 13:32:43;;;;;;;1.70;1.23;;;;;;;;;;5038283;28;20206;-70
2023/04/02 13:35:09;;;;;;;1.63;1.20;;;;;;;;;;5037846;28;20298;-71
2023/04/02 13:37:36;;;;;;;1.23;0.97;;;;;;;;;;5050890;28;20317;-71
2023/04/02 13:40:02;;;;;;;1.47;0.90;;;;;;;;;;5051706;28;20210;-71
2023/04/02 13:42:29;;;;;;;1.10;0.80;;;;;;;;;;5050119;28;20210;-71
2023/04/02 13:44:55;;;;;;;3.17;1.37;;;;;;;;;;5052737;28;20568;-68
2023/04/02 13:47:23;;;;;;;1.60;0.90;;;;;;;;;;5031628;28;20204;-70
2023/04/02 13:49:49;;;;;;;0.80;0.80;;;;;;;;;;5014923;28;20215;-71
2023/04/02 13:52:16;;;;;;;1.00;0.90;;;;;;;;;;5039330;28;20267;-71
2023/04/02 13:54:45;;;;;;;2.30;0.90;;;;;;;;;;5010645;28;20207;-70
2023/04/02 13:57:13;;;;;;;2.60;1.17;;;;;;;;;;5025766;28;20232;-69
2023/04/02 13:59:40;;;;;;;1.07;0.93;;;;;;;;;;5022334;28;20436;-71
2023/04/02 14:02:09;;;;;;;2.33;1.13;;;;;;;;;;5009506;28;20211;-71
2023/04/02 14:04:38;;;;;;;1.77;1.17;;;;;;;;;;5020987;28;20226;-69
2023/04/02 14:07:16;;;;;;;1.07;0.97;;;;;;;;;;5024684;28;20230;-72
2023/04/02 14:09:49;;;;;;;1.10;0.90;;;;;;;;;;5021411;28;20219;-70
2023/04/02 14:12:19;;;;;;;2.57;1.80;;;;;;;;;;5022454;28;20661;-73
2023/04/02 14:15:00;;;;;;;2.40;1.77;;;;;;;;;;5031417;28;20214;-69
2023/04/02 14:17:33;;;;;;;3.87;1.63;;;;;;;;;;5001890;28;20859;-69
2023/04/02 14:20:07;;;;;;;2.20;1.50;;;;;;;;;;5022762;28;20202;-70
2023/04/02 14:22:41;;;;;;;2.93;1.30;;;;;;;;;;5022093;28;20195;-70
2023/04/02 14:25:12;;;;;;;1.73;1.40;;;;;;;;;;5023725;28;20752;-69
2023/04/02 14:27:41;;;;;;;2.30;1.67;;;;;;;;;;5024547;28;20231;-69
2023/04/02 14:30:14;;;;;;;2.23;1.57;;;;;;;;;;5024812;28;20200;-70
2023/04/02 14:32:44;;;;;;;4.47;2.00;;;;;;;;;;5019280;28;20208;-70
2023/04/02 14:35:16;;;;;;;3.97;1.70;;;;;;;;;;5012743;28;20338;-72
2023/04/02 14:37:49;;;;;;;1.70;1.33;;;;;;;;;;5022271;28;20490;-69
2023/04/02 14:40:18;;;;;;;1.50;1.40;;;;;;;;;;5021867;28;20200;-71
2023/04/02 14:42:51;;;;;;;3.40;1.27;;;;;;;;;;5023230;28;20207;-70
2023/04/02 14:45:22;;;;;;;2.37;1.27;;;;;;;;;;5023870;28;20220;-70
2023/04/02 14:47:51;;;;;;;1.87;1.10;;;;;;;;;;5027587;28;20203;-70
2023/04/02 14:50:21;;;;;;;4.70;1.50;;;;;;;;;;5023124;28;20207;-69
2023/04/02 14:52:50;;;;;;;1.60;1.50;;;;;;;;;;5022331;28;20200;-70
2023/04/02 14:55:21;;;;;;;5.27;1.80;;;;;;;;;;5024814;28;20263;-69
2023/04/02 14:57:51;;;;;;;2.20;1.73;;;;;;;;;;5023943;28;20203;-69
2023/04/02 15:00:26;;;;;;;2.07;1.20;;;;;;;;;;5007685;28;20218;-71
2023/04/02 15:02:54;;;;;;;1.53;1.13;;;;;;;;;;5026185;28;20226;-69